createdAt,value
2018-05-18T00:02:00.750Z,20.73
2018-05-18T00:06:04.034Z,21.13
2018-05-18T00:10:06.595Z,22.27
2018-05-18T00:14:09.235Z,21.13
2018-05-18T00:18:12.131Z,22.77
2018-05-18T00:22:14.659Z,24.73
2018-05-18T00:26:17.235Z,18.90
2018-05-18T00:30:19.816Z,24.73
2018-05-18T00:34:22.827Z,24.83
2018-05-18T00:38:26.139Z,26.43
2018-05-18T00:42:34.184Z,25.30
2018-05-18T00:46:37.475Z,21.90
2018-05-18T00:50:40.035Z,28.10
2018-05-18T00:54:42.567Z,25.43
2018-05-18T00:58:45.118Z,26.80
2018-05-18T01:02:48.420Z,19.77
2018-05-18T01:06:50.994Z,27.40
2018-05-18T01:10:54.348Z,35.10
2018-05-18T01:14:56.900Z,29.53
2018-05-18T01:19:00.199Z,22.77
2018-05-18T01:23:03.523Z,25.03
2018-05-18T01:27:06.828Z,19.57
2018-05-18T01:31:10.159Z,20.93
2018-05-18T01:35:13.471Z,24.00
2018-05-18T01:39:16.142Z,27.67
2018-05-18T01:43:18.703Z,26.67
2018-05-18T01:47:22.061Z,29.53
2018-05-18T01:51:24.602Z,30.07
2018-05-18T01:55:27.255Z,22.10
2018-05-18T01:59:29.788Z,27.13
2018-05-18T02:03:32.658Z,34.67
2018-05-18T02:07:35.961Z,24.73
2018-05-18T02:11:38.535Z,26.57
2018-05-18T02:15:41.063Z,24.80
2018-05-18T02:19:43.628Z,25.20
2018-05-18T02:23:46.156Z,22.37
2018-05-18T02:27:48.847Z,29.43
2018-05-18T02:31:51.395Z,24.80
2018-05-18T02:35:54.055Z,20.90
2018-05-18T02:39:56.601Z,26.97
2018-05-18T02:43:59.173Z,24.40
2018-05-18T02:48:01.715Z,23.43
2018-05-18T02:52:04.299Z,27.40
2018-05-18T02:56:06.840Z,27.70
2018-05-18T03:00:09.410Z,21.53
2018-05-18T03:04:11.947Z,26.13
2018-05-18T03:08:14.507Z,25.03
2018-05-18T03:12:17.031Z,37.97
2018-05-18T03:16:19.591Z,31.53
2018-05-18T03:20:22.927Z,25.17
2018-05-18T03:24:25.488Z,30.70
2018-05-18T03:28:34.086Z,34.13
2018-05-18T03:32:36.743Z,26.00
2018-05-18T03:36:39.275Z,33.73
2018-05-18T03:40:42.599Z,22.67
2018-05-18T03:44:45.127Z,39.10
2018-05-18T03:48:47.707Z,29.60
2018-05-18T03:52:52.947Z,33.73
2018-05-18T03:56:55.506Z,20.37
2018-05-18T04:00:58.055Z,19.27
2018-05-18T04:05:12.573Z,32.27
2018-05-18T04:09:15.119Z,28.13
2018-05-18T04:13:17.731Z,30.03
2018-05-18T04:17:20.253Z,25.77
2018-05-18T04:21:24.780Z,27.30
2018-05-18T04:25:27.327Z,32.43
2018-05-18T04:29:29.905Z,37.63
2018-05-18T04:38:01.544Z,40.00
2018-05-18T04:42:14.577Z,28.33
2018-05-18T04:46:17.139Z,29.63
2018-05-18T04:50:19.675Z,22.67
2018-05-18T04:54:22.638Z,27.87
2018-05-18T04:58:25.146Z,29.77
2018-05-18T05:02:31.671Z,31.43
2018-05-18T05:06:34.214Z,36.80
2018-05-18T05:10:36.775Z,30.23
2018-05-18T05:14:50.590Z,35.33
2018-05-18T05:18:53.251Z,45.10
2018-05-18T05:22:55.786Z,35.67
2018-05-18T05:26:59.123Z,42.63
2018-05-18T05:31:01.722Z,42.03
2018-05-18T05:35:15.414Z,43.80
2018-05-18T05:39:18.771Z,43.97
2018-05-18T05:43:21.359Z,48.93
2018-05-18T05:47:23.884Z,57.90
2018-05-18T05:51:26.507Z,54.03
2018-05-18T05:55:29.042Z,51.07
2018-05-18T05:59:31.710Z,54.63
2018-05-18T06:03:34.250Z,55.40
2018-05-18T06:07:37.130Z,56.20
2018-05-18T06:11:39.667Z,56.07
2018-05-18T06:15:42.667Z,51.57
2018-05-18T06:19:49.023Z,44.57
2018-05-18T06:23:51.579Z,53.30
2018-05-18T06:27:54.895Z,45.07
2018-05-18T06:32:18.311Z,47.47
2018-05-18T06:36:20.842Z,52.70
2018-05-18T06:40:25.548Z,56.87
2018-05-18T06:44:28.846Z,59.77
2018-05-18T06:48:31.409Z,52.93
2018-05-18T06:52:41.107Z,49.93
2018-05-18T06:56:43.656Z,56.13
2018-05-18T07:00:46.946Z,58.30
2018-05-18T07:04:57.538Z,57.27
2018-05-18T07:09:00.059Z,57.57
2018-05-18T07:13:02.990Z,62.70
2018-05-18T07:17:06.299Z,64.97
2018-05-18T07:21:09.319Z,50.03
2018-05-18T07:25:11.854Z,59.00
2018-05-18T07:29:14.526Z,52.03
2018-05-18T07:33:17.979Z,64.93
2018-05-18T07:37:21.306Z,58.60
2018-05-18T07:41:24.835Z,69.57
2018-05-18T07:45:30.220Z,51.53
2018-05-18T07:49:32.744Z,67.83
2018-05-18T07:53:35.340Z,74.77
2018-05-18T07:57:38.610Z,65.03
2018-05-18T08:01:41.166Z,74.37
2018-05-18T08:05:43.700Z,65.07
2018-05-18T08:09:46.243Z,60.87
2018-05-18T08:13:51.494Z,59.47
2018-05-18T08:17:54.067Z,62.90
2018-05-18T08:21:56.671Z,64.73
2018-05-18T08:26:00.042Z,72.87
2018-05-18T08:30:02.575Z,68.77
2018-05-18T08:34:05.899Z,65.40
2018-05-18T08:42:37.738Z,70.37
2018-05-18T08:46:50.094Z,86.97
2018-05-18T08:50:52.647Z,80.43
2018-05-18T08:54:55.176Z,82.80
2018-05-18T08:58:58.510Z,79.00
2018-05-18T09:03:01.804Z,88.87
2018-05-18T09:07:04.386Z,88.37
2018-05-18T09:11:14.042Z,86.10
2018-05-18T09:15:16.603Z,86.03
2018-05-18T09:19:36.624Z,85.43
2018-05-18T09:23:40.047Z,82.77
2018-05-18T09:27:44.367Z,77.87
2018-05-18T09:31:47.015Z,78.67
2018-05-18T09:35:50.336Z,76.40
2018-05-18T09:39:53.655Z,78.13
2018-05-18T09:44:01.552Z,67.30
2018-05-18T09:48:06.136Z,81.70
2018-05-18T09:56:44.434Z,70.93
2018-05-18T10:00:49.696Z,70.17
2018-05-18T10:04:52.251Z,66.07
2018-05-18T10:08:56.735Z,71.77
2018-05-18T10:13:05.807Z,71.10
2018-05-18T10:17:09.111Z,70.97
2018-05-18T10:21:11.750Z,68.50
2018-05-18T10:25:14.303Z,67.37
2018-05-18T10:29:16.859Z,66.73
2018-05-18T10:33:20.160Z,65.90
2018-05-18T10:37:33.046Z,63.13
2018-05-18T10:41:35.590Z,57.70
2018-05-18T10:45:42.335Z,69.43
2018-05-18T10:49:45.636Z,66.53
2018-05-18T10:53:48.191Z,60.23
2018-05-18T10:57:54.144Z,63.97
2018-05-18T11:01:56.814Z,60.17
2018-05-18T11:05:59.342Z,62.33
2018-05-18T11:10:02.222Z,54.03
2018-05-18T11:14:04.776Z,58.13
2018-05-18T11:18:07.324Z,57.40
2018-05-18T11:22:09.859Z,50.73
2018-05-18T11:26:12.510Z,44.17
2018-05-18T11:30:15.007Z,42.97
2018-05-18T11:34:18.329Z,43.50
2018-05-18T11:38:21.626Z,42.43
2018-05-18T11:42:24.280Z,41.20
2018-05-18T11:46:26.855Z,42.50
2018-05-18T11:50:29.407Z,44.93
2018-05-18T11:54:31.940Z,38.70
2018-05-18T11:58:37.950Z,45.63
2018-05-18T12:02:40.475Z,52.37
2018-05-18T12:06:43.878Z,45.53
2018-05-18T12:10:46.399Z,47.57
2018-05-18T12:14:49.724Z,46.17
2018-05-18T12:18:53.020Z,50.20
2018-05-18T12:22:55.570Z,50.50
2018-05-18T12:27:04.380Z,53.63
2018-05-18T12:31:07.033Z,38.77
2018-05-18T12:35:09.562Z,50.63
2018-05-18T12:39:37.642Z,45.73
2018-05-18T12:43:40.170Z,40.80
2018-05-18T12:47:42.834Z,43.00
2018-05-18T12:51:45.427Z,45.27
2018-05-18T12:55:47.986Z,45.57
2018-05-18T12:59:50.544Z,45.70
2018-05-18T13:03:53.107Z,42.07
2018-05-18T13:07:55.634Z,38.90
2018-05-18T13:11:58.283Z,43.50
2018-05-18T13:16:01.663Z,40.90
2018-05-18T13:20:21.563Z,46.97
2018-05-18T13:24:24.094Z,43.10
2018-05-18T13:28:26.654Z,37.97
2018-05-18T13:32:37.452Z,42.80
2018-05-18T13:36:41.974Z,48.53
2018-05-18T13:45:14.413Z,41.90
2018-05-18T13:54:03.958Z,40.33
2018-05-18T13:58:06.583Z,41.37
2018-05-18T14:02:11.192Z,39.60
2018-05-18T14:06:20.350Z,38.40
2018-05-18T14:10:23.843Z,40.27
2018-05-18T14:14:26.427Z,48.23
2018-05-18T14:18:28.989Z,49.43
2018-05-18T14:22:31.514Z,39.17
2018-05-18T14:26:34.068Z,39.83
2018-05-18T14:30:43.974Z,43.70
2018-05-18T14:34:46.534Z,32.90
2018-05-18T14:38:49.201Z,28.00
2018-05-18T14:42:59.532Z,30.10
2018-05-18T14:47:02.830Z,30.40
2018-05-18T14:51:05.563Z,31.50
2018-05-18T14:55:08.146Z,25.67
2018-05-18T14:59:10.715Z,28.60
2018-05-18T15:03:14.383Z,24.13
2018-05-18T15:07:17.060Z,25.67
2018-05-18T15:11:19.612Z,29.37
2018-05-18T15:15:22.267Z,22.53
2018-05-18T15:19:24.796Z,20.33
2018-05-18T15:23:35.918Z,21.47
2018-05-18T15:27:39.450Z,26.77
2018-05-18T15:31:42.006Z,24.40
2018-05-18T15:36:04.585Z,21.73
2018-05-18T15:40:08.006Z,21.97
2018-05-18T15:44:22.999Z,27.50
2018-05-18T15:48:26.412Z,21.23
2018-05-18T15:52:29.743Z,20.97
2018-05-18T15:56:33.092Z,22.03
2018-05-18T16:00:36.521Z,21.77
2018-05-18T16:04:47.614Z,21.77
2018-05-18T16:08:51.912Z,18.33
2018-05-18T16:12:59.091Z,18.53
2018-05-18T16:17:02.477Z,21.03
2018-05-18T16:21:05.181Z,17.63
2018-05-18T16:25:07.691Z,23.27
2018-05-18T16:29:10.244Z,17.97
2018-05-18T16:33:14.788Z,22.80
2018-05-18T16:37:22.068Z,20.20
2018-05-18T16:41:24.611Z,19.97
2018-05-18T16:45:28.114Z,22.93
2018-05-18T16:49:31.415Z,22.33
2018-05-18T16:53:33.970Z,17.10
2018-05-18T16:57:36.519Z,20.43
2018-05-18T17:01:42.743Z,22.73
2018-05-18T17:05:46.035Z,21.70
2018-05-18T17:09:54.918Z,15.50
2018-05-18T17:13:58.231Z,19.20
2018-05-18T17:18:00.806Z,14.90
2018-05-18T17:22:08.168Z,18.80
2018-05-18T17:26:11.488Z,24.17
2018-05-18T17:30:16.727Z,24.77
2018-05-18T17:34:21.215Z,19.07
2018-05-18T17:38:24.512Z,18.93
2018-05-18T17:42:27.070Z,22.70
2018-05-18T17:46:29.596Z,17.53
2018-05-18T17:50:32.147Z,23.97
2018-05-18T17:54:35.450Z,18.47
2018-05-18T17:58:38.011Z,15.83
2018-05-18T18:02:41.463Z,19.57
2018-05-18T18:06:44.023Z,21.30
2018-05-18T18:10:47.319Z,18.37
2018-05-18T18:14:49.866Z,19.50
2018-05-18T18:18:52.390Z,22.47
2018-05-18T18:22:55.885Z,18.23
2018-05-18T18:26:59.179Z,18.07
2018-05-18T18:31:12.444Z,19.43
2018-05-18T18:35:15.755Z,14.60
2018-05-18T18:39:18.313Z,19.30
2018-05-18T18:43:21.819Z,18.40
2018-05-18T18:47:25.151Z,15.80
2018-05-18T18:51:28.622Z,20.10
2018-05-18T18:55:31.234Z,14.60
2018-05-18T18:59:33.760Z,18.60
2018-05-18T19:03:36.310Z,22.27
2018-05-18T19:07:38.834Z,20.93
2018-05-18T19:11:41.479Z,16.23
2018-05-18T19:15:44.002Z,19.47
2018-05-18T19:19:47.313Z,20.37
2018-05-18T19:23:49.844Z,18.23
2018-05-18T19:27:52.403Z,15.30
2018-05-18T19:31:56.948Z,13.13
2018-05-18T19:35:59.607Z,12.80
2018-05-18T19:40:04.108Z,15.53
2018-05-18T19:44:06.675Z,22.03
2018-05-18T19:48:09.198Z,16.40
2018-05-18T19:52:22.199Z,13.57
2018-05-18T19:56:28.478Z,18.50
2018-05-18T20:00:31.026Z,16.47
2018-05-18T20:04:34.612Z,16.40
2018-05-18T20:08:44.314Z,21.17
2018-05-18T20:13:01.971Z,20.40
2018-05-18T20:17:12.320Z,16.93
2018-05-18T20:21:14.843Z,17.93
2018-05-18T20:25:17.447Z,15.53
2018-05-18T20:29:19.977Z,17.13
2018-05-18T20:33:24.301Z,17.43
2018-05-18T20:37:32.678Z,22.93
2018-05-18T20:41:49.039Z,21.53
2018-05-18T20:45:58.926Z,15.43
2018-05-18T20:50:01.477Z,20.03
2018-05-18T20:54:13.701Z,16.47
2018-05-18T20:58:22.007Z,16.83
2018-05-18T21:02:25.542Z,17.13
2018-05-18T21:06:28.602Z,18.90
2018-05-18T21:10:31.993Z,15.57
2018-05-18T21:14:47.136Z,17.53
2018-05-18T21:18:50.439Z,20.37
2018-05-18T21:22:53.806Z,19.93
2018-05-18T21:31:24.077Z,19.43
2018-05-18T21:35:26.626Z,17.53
2018-05-18T21:39:29.964Z,12.80
2018-05-18T21:43:37.379Z,16.43
2018-05-18T21:47:39.944Z,16.60
2018-05-18T21:51:42.494Z,18.27
2018-05-18T21:55:45.103Z,24.23
2018-05-18T21:59:47.677Z,18.23
2018-05-18T22:03:50.667Z,17.77
2018-05-18T22:08:13.831Z,16.53
2018-05-18T22:12:16.564Z,13.23
2018-05-18T22:16:25.983Z,21.83
2018-05-18T22:20:30.894Z,15.47
2018-05-18T22:24:33.432Z,16.60
2018-05-18T22:28:35.999Z,14.40
2018-05-18T22:32:38.524Z,10.67
2018-05-18T22:36:41.083Z,15.27
2018-05-18T22:41:08.838Z,15.57
2018-05-18T22:45:11.386Z,13.03
2018-05-18T22:49:24.598Z,13.90
2018-05-18T22:53:27.998Z,21.80
2018-05-18T22:57:30.510Z,20.90
2018-05-18T23:01:38.378Z,15.10
2018-05-18T23:05:40.902Z,21.93
2018-05-18T23:09:43.451Z,19.57
2018-05-18T23:13:45.974Z,29.57
2018-05-18T23:17:49.298Z,26.13
2018-05-18T23:21:51.843Z,22.17
2018-05-18T23:26:15.494Z,21.57
2018-05-18T23:30:18.786Z,19.93
2018-05-18T23:34:21.332Z,20.13
2018-05-18T23:38:38.015Z,13.93
2018-05-18T23:42:51.275Z,15.57
2018-05-18T23:46:54.799Z,19.77
2018-05-18T23:50:57.378Z,13.23
2018-05-18T23:54:59.900Z,14.47
2018-05-18T23:59:02.452Z,14.20
